sensor_id;sensor_type;location;lat;lon;timestamp;P1;durP1;ratioP1;P2;durP2;ratioP2
23101;SDS011;11720;51.214;22.574;2022-12-07T00:00:00;7.20;;;4.17;;
23101;SDS011;11720;51.214;22.574;2022-12-07T00:02:25;7.93;;;3.83;;
23101;SDS011;11720;51.214;22.574;2022-12-07T00:04:52;6.07;;;4.57;;
23101;SDS011;11720;51.214;22.574;2022-12-07T00:07:17;4.10;;;3.13;;
23101;SDS011;11720;51.214;22.574;2022-12-07T00:09:43;6.23;;;3.50;;
23101;SDS011;11720;51.214;22.574;2022-12-07T00:12:09;3.47;;;3.13;;
23101;SDS011;11720;51.214;22.574;2022-12-07T00:14:34;7.63;;;4.63;;
23101;SDS011;11720;51.214;22.574;2022-12-07T00:17:00;8.87;;;4.30;;
23101;SDS011;11720;51.214;22.574;2022-12-07T00:19:26;4.43;;;3.43;;
23101;SDS011;11720;51.214;22.574;2022-12-07T00:21:51;4.07;;;3.33;;
23101;SDS011;11720;51.214;22.574;2022-12-07T00:24:17;5.87;;;4.43;;
23101;SDS011;11720;51.214;22.574;2022-12-07T00:26:42;9.33;;;4.33;;
23101;SDS011;11720;51.214;22.574;2022-12-07T00:29:12;8.17;;;5.27;;
23101;SDS011;11720;51.214;22.574;2022-12-07T00:31:46;7.03;;;3.37;;
23101;SDS011;11720;51.214;22.574;2022-12-07T00:34:17;3.17;;;2.67;;
23101;SDS011;11720;51.214;22.574;2022-12-07T00:36:45;5.97;;;2.93;;
23101;SDS011;11720;51.214;22.574;2022-12-07T00:39:11;5.40;;;3.50;;
23101;SDS011;11720;51.214;22.574;2022-12-07T00:41:36;5.57;;;3.67;;
23101;SDS011;11720;51.214;22.574;2022-12-07T00:44:02;11.73;;;5.03;;
23101;SDS011;11720;51.214;22.574;2022-12-07T00:46:28;7.90;;;3.47;;
23101;SDS011;11720;51.214;22.574;2022-12-07T00:48:54;9.67;;;5.10;;
23101;SDS011;11720;51.214;22.574;2022-12-07T00:51:21;11.73;;;4.40;;
23101;SDS011;11720;51.214;22.574;2022-12-07T00:53:47;8.90;;;6.87;;
23101;SDS011;11720;51.214;22.574;2022-12-07T00:56:15;5.60;;;4.87;;
23101;SDS011;11720;51.214;22.574;2022-12-07T00:58:42;5.73;;;4.27;;
23101;SDS011;11720;51.214;22.574;2022-12-07T01:01:09;5.53;;;2.97;;
23101;SDS011;11720;51.214;22.574;2022-12-07T01:03:36;10.13;;;5.13;;
23101;SDS011;11720;51.214;22.574;2022-12-07T01:06:02;7.97;;;3.90;;
23101;SDS011;11720;51.214;22.574;2022-12-07T01:08:28;11.80;;;5.57;;
23101;SDS011;11720;51.214;22.574;2022-12-07T01:11:03;6.70;;;3.90;;
23101;SDS011;11720;51.214;22.574;2022-12-07T01:13:31;3.50;;;2.70;;
23101;SDS011;11720;51.214;22.574;2022-12-07T01:15:58;9.07;;;5.73;;
23101;SDS011;11720;51.214;22.574;2022-12-07T01:18:29;6.53;;;4.47;;
23101;SDS011;11720;51.214;22.574;2022-12-07T01:21:06;4.63;;;3.23;;
23101;SDS011;11720;51.214;22.574;2022-12-07T01:23:34;6.80;;;4.37;;
23101;SDS011;11720;51.214;22.574;2022-12-07T01:26:02;6.63;;;3.43;;
23101;SDS011;11720;51.214;22.574;2022-12-07T01:28:30;3.07;;;2.63;;
23101;SDS011;11720;51.214;22.574;2022-12-07T01:30:57;6.30;;;4.40;;
23101;SDS011;11720;51.214;22.574;2022-12-07T01:33:28;3.93;;;3.47;;
23101;SDS011;11720;51.214;22.574;2022-12-07T01:36:00;11.73;;;4.03;;
23101;SDS011;11720;51.214;22.574;2022-12-07T01:38:45;3.57;;;3.27;;
23101;SDS011;11720;51.214;22.574;2022-12-07T01:41:13;4.20;;;3.80;;
23101;SDS011;11720;51.214;22.574;2022-12-07T01:46:33;3.83;;;3.47;;
23101;SDS011;11720;51.214;22.574;2022-12-07T01:48:58;4.77;;;3.10;;
23101;SDS011;11720;51.214;22.574;2022-12-07T01:51:25;3.93;;;3.47;;
23101;SDS011;11720;51.214;22.574;2022-12-07T01:53:52;4.80;;;3.27;;
23101;SDS011;11720;51.214;22.574;2022-12-07T01:56:18;5.10;;;3.07;;
23101;SDS011;11720;51.214;22.574;2022-12-07T01:58:49;6.70;;;3.80;;
23101;SDS011;11720;51.214;22.574;2022-12-07T02:01:15;4.73;;;3.33;;
23101;SDS011;11720;51.214;22.574;2022-12-07T02:03:42;2.77;;;2.57;;
23101;SDS011;11720;51.214;22.574;2022-12-07T02:06:10;7.13;;;3.93;;
23101;SDS011;11720;51.214;22.574;2022-12-07T02:08:37;8.87;;;3.43;;
23101;SDS011;11720;51.214;22.574;2022-12-07T02:11:03;6.13;;;3.13;;
23101;SDS011;11720;51.214;22.574;2022-12-07T02:13:31;3.33;;;2.87;;
23101;SDS011;11720;51.214;22.574;2022-12-07T02:16:21;3.27;;;3.00;;
23101;SDS011;11720;51.214;22.574;2022-12-07T02:30:26;3.83;;;3.10;;
23101;SDS011;11720;51.214;22.574;2022-12-07T02:32:59;2.53;;;2.03;;
23101;SDS011;11720;51.214;22.574;2022-12-07T02:35:34;1.97;;;1.87;;
23101;SDS011;11720;51.214;22.574;2022-12-07T02:38:21;6.67;;;3.43;;
23101;SDS011;11720;51.214;22.574;2022-12-07T02:40:52;1.50;;;1.43;;
23101;SDS011;11720;51.214;22.574;2022-12-07T02:43:40;2.27;;;1.73;;
23101;SDS011;11720;51.214;22.574;2022-12-07T02:46:17;2.00;;;1.60;;
23101;SDS011;11720;51.214;22.574;2022-12-07T02:48:49;10.33;;;2.10;;
23101;SDS011;11720;51.214;22.574;2022-12-07T02:51:17;1.73;;;1.67;;
23101;SDS011;11720;51.214;22.574;2022-12-07T02:53:43;1.73;;;1.63;;
23101;SDS011;11720;51.214;22.574;2022-12-07T03:10:18;2.10;;;1.90;;
23101;SDS011;11720;51.214;22.574;2022-12-07T03:13:07;2.07;;;1.93;;
23101;SDS011;11720;51.214;22.574;2022-12-07T03:16:08;1.73;;;1.63;;
23101;SDS011;11720;51.214;22.574;2022-12-07T03:21:27;1.60;;;1.40;;
23101;SDS011;11720;51.214;22.574;2022-12-07T03:24:06;3.27;;;1.90;;
23101;SDS011;11720;51.214;22.574;2022-12-07T03:26:41;1.63;;;1.53;;
23101;SDS011;11720;51.214;22.574;2022-12-07T03:29:13;4.73;;;2.07;;
23101;SDS011;11720;51.214;22.574;2022-12-07T03:31:46;1.77;;;1.67;;
23101;SDS011;11720;51.214;22.574;2022-12-07T03:34:18;1.47;;;1.37;;
23101;SDS011;11720;51.214;22.574;2022-12-07T03:36:54;1.70;;;1.60;;
23101;SDS011;11720;51.214;22.574;2022-12-07T03:39:34;1.90;;;1.80;;
23101;SDS011;11720;51.214;22.574;2022-12-07T03:42:01;1.30;;;1.27;;
23101;SDS011;11720;51.214;22.574;2022-12-07T03:44:29;1.13;;;1.00;;
23101;SDS011;11720;51.214;22.574;2022-12-07T03:49:34;0.90;;;0.90;;
23101;SDS011;11720;51.214;22.574;2022-12-07T03:57:36;2.13;;;1.97;;
23101;SDS011;11720;51.214;22.574;2022-12-07T04:00:06;1.83;;;1.50;;
23101;SDS011;11720;51.214;22.574;2022-12-07T04:02:32;2.97;;;2.43;;
23101;SDS011;11720;51.214;22.574;2022-12-07T04:04:59;1.80;;;1.70;;
23101;SDS011;11720;51.214;22.574;2022-12-07T04:07:25;1.70;;;1.10;;
23101;SDS011;11720;51.214;22.574;2022-12-07T04:09:50;1.27;;;1.10;;
23101;SDS011;11720;51.214;22.574;2022-12-07T04:12:16;1.50;;;1.40;;
23101;SDS011;11720;51.214;22.574;2022-12-07T04:14:42;1.30;;;1.20;;
23101;SDS011;11720;51.214;22.574;2022-12-07T04:17:07;1.50;;;1.40;;
23101;SDS011;11720;51.214;22.574;2022-12-07T04:19:33;1.93;;;1.83;;
23101;SDS011;11720;51.214;22.574;2022-12-07T04:22:00;1.10;;;1.07;;
23101;SDS011;11720;51.214;22.574;2022-12-07T04:24:27;1.50;;;1.40;;
23101;SDS011;11720;51.214;22.574;2022-12-07T04:26:53;1.87;;;1.77;;
23101;SDS011;11720;51.214;22.574;2022-12-07T04:29:18;2.07;;;1.93;;
23101;SDS011;11720;51.214;22.574;2022-12-07T04:31:44;1.17;;;1.13;;
23101;SDS011;11720;51.214;22.574;2022-12-07T04:34:11;2.13;;;1.93;;
23101;SDS011;11720;51.214;22.574;2022-12-07T04:36:37;1.70;;;1.60;;
23101;SDS011;11720;51.214;22.574;2022-12-07T04:39:04;1.73;;;1.63;;
23101;SDS011;11720;51.214;22.574;2022-12-07T04:41:30;0.90;;;0.90;;
23101;SDS011;11720;51.214;22.574;2022-12-07T04:43:56;1.57;;;1.47;;
23101;SDS011;11720;51.214;22.574;2022-12-07T04:46:24;1.07;;;1.07;;
23101;SDS011;11720;51.214;22.574;2022-12-07T04:48:51;1.00;;;1.00;;
23101;SDS011;11720;51.214;22.574;2022-12-07T04:51:19;1.63;;;1.53;;
23101;SDS011;11720;51.214;22.574;2022-12-07T04:53:46;1.33;;;1.30;;
23101;SDS011;11720;51.214;22.574;2022-12-07T04:56:13;1.43;;;1.37;;
23101;SDS011;11720;51.214;22.574;2022-12-07T04:58:40;1.40;;;1.30;;
23101;SDS011;11720;51.214;22.574;2022-12-07T05:01:06;1.70;;;1.23;;
23101;SDS011;11720;51.214;22.574;2022-12-07T05:03:32;4.13;;;1.57;;
23101;SDS011;11720;51.214;22.574;2022-12-07T05:05:58;2.50;;;2.30;;
23101;SDS011;11720;51.214;22.574;2022-12-07T05:08:23;2.23;;;2.03;;
23101;SDS011;11720;51.214;22.574;2022-12-07T05:10:49;3.00;;;1.90;;
23101;SDS011;11720;51.214;22.574;2022-12-07T05:13:15;1.17;;;1.10;;
23101;SDS011;11720;51.214;22.574;2022-12-07T05:15:40;1.13;;;1.13;;
23101;SDS011;11720;51.214;22.574;2022-12-07T05:18:08;2.03;;;1.93;;
23101;SDS011;11720;51.214;22.574;2022-12-07T05:20:37;2.30;;;2.10;;
23101;SDS011;11720;51.214;22.574;2022-12-07T05:23:03;1.67;;;1.57;;
23101;SDS011;11720;51.214;22.574;2022-12-07T05:25:29;2.47;;;2.27;;
23101;SDS011;11720;51.214;22.574;2022-12-07T05:27:55;1.53;;;1.43;;
23101;SDS011;11720;51.214;22.574;2022-12-07T05:30:21;1.83;;;1.73;;
23101;SDS011;11720;51.214;22.574;2022-12-07T05:32:47;0.93;;;0.93;;
23101;SDS011;11720;51.214;22.574;2022-12-07T05:35:13;2.40;;;2.20;;
23101;SDS011;11720;51.214;22.574;2022-12-07T05:37:39;1.20;;;1.20;;
23101;SDS011;11720;51.214;22.574;2022-12-07T05:40:06;2.30;;;1.53;;
23101;SDS011;11720;51.214;22.574;2022-12-07T05:42:32;1.10;;;1.10;;
23101;SDS011;11720;51.214;22.574;2022-12-07T05:44:58;2.93;;;1.70;;
23101;SDS011;11720;51.214;22.574;2022-12-07T05:47:24;1.60;;;1.50;;
23101;SDS011;11720;51.214;22.574;2022-12-07T05:49:50;2.27;;;2.07;;
23101;SDS011;11720;51.214;22.574;2022-12-07T05:52:16;2.67;;;2.47;;
23101;SDS011;11720;51.214;22.574;2022-12-07T05:54:41;1.73;;;1.63;;
23101;SDS011;11720;51.214;22.574;2022-12-07T05:57:07;1.77;;;1.67;;
23101;SDS011;11720;51.214;22.574;2022-12-07T05:59:33;1.60;;;1.50;;
23101;SDS011;11720;51.214;22.574;2022-12-07T06:02:00;1.93;;;1.73;;
23101;SDS011;11720;51.214;22.574;2022-12-07T06:04:29;4.27;;;1.47;;
23101;SDS011;11720;51.214;22.574;2022-12-07T06:06:58;1.90;;;1.80;;
23101;SDS011;11720;51.214;22.574;2022-12-07T06:09:25;1.03;;;1.03;;
23101;SDS011;11720;51.214;22.574;2022-12-07T06:11:52;2.17;;;1.83;;
23101;SDS011;11720;51.214;22.574;2022-12-07T06:14:37;2.17;;;2.07;;
23101;SDS011;11720;51.214;22.574;2022-12-07T06:17:03;2.37;;;1.60;;
23101;SDS011;11720;51.214;22.574;2022-12-07T06:19:29;1.87;;;1.77;;
23101;SDS011;11720;51.214;22.574;2022-12-07T06:21:55;1.93;;;1.80;;
23101;SDS011;11720;51.214;22.574;2022-12-07T06:24:21;1.90;;;1.80;;
23101;SDS011;11720;51.214;22.574;2022-12-07T06:26:47;1.93;;;1.83;;
23101;SDS011;11720;51.214;22.574;2022-12-07T06:29:13;1.00;;;1.00;;
23101;SDS011;11720;51.214;22.574;2022-12-07T06:31:40;2.40;;;2.20;;
23101;SDS011;11720;51.214;22.574;2022-12-07T06:34:08;1.40;;;1.30;;
23101;SDS011;11720;51.214;22.574;2022-12-07T06:36:35;1.67;;;1.47;;
23101;SDS011;11720;51.214;22.574;2022-12-07T06:39:02;1.63;;;1.10;;
23101;SDS011;11720;51.214;22.574;2022-12-07T06:41:28;1.77;;;1.67;;
23101;SDS011;11720;51.214;22.574;2022-12-07T06:43:54;1.00;;;1.00;;
23101;SDS011;11720;51.214;22.574;2022-12-07T06:46:20;0.93;;;0.93;;
23101;SDS011;11720;51.214;22.574;2022-12-07T06:48:45;2.77;;;2.57;;
23101;SDS011;11720;51.214;22.574;2022-12-07T06:51:11;1.63;;;1.53;;
23101;SDS011;11720;51.214;22.574;2022-12-07T06:53:37;1.03;;;1.03;;
23101;SDS011;11720;51.214;22.574;2022-12-07T06:56:03;1.00;;;1.00;;
23101;SDS011;11720;51.214;22.574;2022-12-07T06:58:29;1.60;;;1.50;;
23101;SDS011;11720;51.214;22.574;2022-12-07T07:00:55;1.93;;;1.83;;
23101;SDS011;11720;51.214;22.574;2022-12-07T07:03:21;6.43;;;4.07;;
23101;SDS011;11720;51.214;22.574;2022-12-07T07:05:47;2.67;;;2.53;;
23101;SDS011;11720;51.214;22.574;2022-12-07T07:08:13;1.03;;;1.03;;
23101;SDS011;11720;51.214;22.574;2022-12-07T07:10:39;2.20;;;2.10;;
23101;SDS011;11720;51.214;22.574;2022-12-07T07:13:05;2.20;;;2.00;;
23101;SDS011;11720;51.214;22.574;2022-12-07T07:15:32;1.33;;;1.33;;
23101;SDS011;11720;51.214;22.574;2022-12-07T07:17:58;1.57;;;1.47;;
23101;SDS011;11720;51.214;22.574;2022-12-07T07:20:24;1.43;;;1.43;;
23101;SDS011;11720;51.214;22.574;2022-12-07T07:22:50;2.80;;;1.57;;
23101;SDS011;11720;51.214;22.574;2022-12-07T07:25:18;4.77;;;2.37;;
23101;SDS011;11720;51.214;22.574;2022-12-07T07:27:44;1.40;;;1.30;;
23101;SDS011;11720;51.214;22.574;2022-12-07T07:30:10;1.80;;;1.70;;
23101;SDS011;11720;51.214;22.574;2022-12-07T07:32:36;1.70;;;1.27;;
23101;SDS011;11720;51.214;22.574;2022-12-07T07:35:02;2.00;;;1.83;;
23101;SDS011;11720;51.214;22.574;2022-12-07T07:37:28;2.30;;;2.20;;
23101;SDS011;11720;51.214;22.574;2022-12-07T07:39:54;13.90;;;2.40;;
23101;SDS011;11720;51.214;22.574;2022-12-07T07:42:20;3.80;;;2.30;;
23101;SDS011;11720;51.214;22.574;2022-12-07T07:44:45;3.90;;;2.33;;
23101;SDS011;11720;51.214;22.574;2022-12-07T07:47:11;3.00;;;2.80;;
23101;SDS011;11720;51.214;22.574;2022-12-07T07:49:37;1.77;;;1.67;;
23101;SDS011;11720;51.214;22.574;2022-12-07T07:52:02;1.63;;;1.57;;
23101;SDS011;11720;51.214;22.574;2022-12-07T07:54:30;2.17;;;1.97;;
23101;SDS011;11720;51.214;22.574;2022-12-07T07:56:55;1.60;;;1.37;;
23101;SDS011;11720;51.214;22.574;2022-12-07T07:59:21;2.60;;;2.10;;
23101;SDS011;11720;51.214;22.574;2022-12-07T08:01:47;2.93;;;2.20;;
23101;SDS011;11720;51.214;22.574;2022-12-07T08:04:13;1.83;;;1.73;;
23101;SDS011;11720;51.214;22.574;2022-12-07T08:06:38;7.30;;;2.73;;
23101;SDS011;11720;51.214;22.574;2022-12-07T08:09:04;2.17;;;1.93;;
23101;SDS011;11720;51.214;22.574;2022-12-07T08:11:31;5.27;;;2.10;;
23101;SDS011;11720;51.214;22.574;2022-12-07T08:13:57;4.67;;;2.37;;
23101;SDS011;11720;51.214;22.574;2022-12-07T08:16:23;1.80;;;1.30;;
23101;SDS011;11720;51.214;22.574;2022-12-07T08:18:48;3.40;;;3.10;;
23101;SDS011;11720;51.214;22.574;2022-12-07T08:21:14;2.07;;;1.90;;
23101;SDS011;11720;51.214;22.574;2022-12-07T08:23:40;1.50;;;1.40;;
23101;SDS011;11720;51.214;22.574;2022-12-07T08:26:07;1.43;;;1.33;;
23101;SDS011;11720;51.214;22.574;2022-12-07T08:28:35;3.73;;;3.10;;
23101;SDS011;11720;51.214;22.574;2022-12-07T08:31:02;1.80;;;1.70;;
23101;SDS011;11720;51.214;22.574;2022-12-07T08:33:32;3.27;;;2.73;;
23101;SDS011;11720;51.214;22.574;2022-12-07T08:36:05;1.20;;;1.17;;
23101;SDS011;11720;51.214;22.574;2022-12-07T08:38:33;3.73;;;1.67;;
23101;SDS011;11720;51.214;22.574;2022-12-07T08:41:00;1.57;;;1.47;;
23101;SDS011;11720;51.214;22.574;2022-12-07T08:43:26;3.03;;;2.33;;
23101;SDS011;11720;51.214;22.574;2022-12-07T08:46:03;2.97;;;2.20;;
23101;SDS011;11720;51.214;22.574;2022-12-07T08:48:31;2.67;;;1.87;;
23101;SDS011;11720;51.214;22.574;2022-12-07T08:50:58;1.97;;;1.87;;
23101;SDS011;11720;51.214;22.574;2022-12-07T08:53:24;1.40;;;1.30;;
23101;SDS011;11720;51.214;22.574;2022-12-07T08:55:49;1.57;;;1.47;;
23101;SDS011;11720;51.214;22.574;2022-12-07T08:58:15;1.73;;;1.63;;
23101;SDS011;11720;51.214;22.574;2022-12-07T09:00:41;3.70;;;1.83;;
23101;SDS011;11720;51.214;22.574;2022-12-07T09:03:07;2.77;;;1.93;;
23101;SDS011;11720;51.214;22.574;2022-12-07T09:05:33;3.13;;;1.63;;
23101;SDS011;11720;51.214;22.574;2022-12-07T09:08:00;2.53;;;2.33;;
23101;SDS011;11720;51.214;22.574;2022-12-07T09:10:26;2.70;;;2.30;;
23101;SDS011;11720;51.214;22.574;2022-12-07T09:12:53;1.60;;;1.50;;
23101;SDS011;11720;51.214;22.574;2022-12-07T09:15:19;2.23;;;2.03;;
23101;SDS011;11720;51.214;22.574;2022-12-07T09:17:45;3.10;;;2.10;;
23101;SDS011;11720;51.214;22.574;2022-12-07T09:20:11;2.60;;;2.40;;
23101;SDS011;11720;51.214;22.574;2022-12-07T09:22:37;2.23;;;1.97;;
23101;SDS011;11720;51.214;22.574;2022-12-07T09:25:03;2.17;;;1.73;;
23101;SDS011;11720;51.214;22.574;2022-12-07T09:27:30;2.27;;;2.10;;
23101;SDS011;11720;51.214;22.574;2022-12-07T09:29:56;2.13;;;1.33;;
23101;SDS011;11720;51.214;22.574;2022-12-07T09:32:22;2.30;;;2.00;;
23101;SDS011;11720;51.214;22.574;2022-12-07T09:34:49;2.60;;;2.40;;
23101;SDS011;11720;51.214;22.574;2022-12-07T09:37:14;2.33;;;1.83;;
23101;SDS011;11720;51.214;22.574;2022-12-07T09:39:40;3.47;;;2.00;;
23101;SDS011;11720;51.214;22.574;2022-12-07T09:42:06;2.23;;;2.13;;
23101;SDS011;11720;51.214;22.574;2022-12-07T09:44:33;4.83;;;3.33;;
23101;SDS011;11720;51.214;22.574;2022-12-07T09:47:00;1.50;;;1.40;;
23101;SDS011;11720;51.214;22.574;2022-12-07T09:49:31;6.40;;;2.73;;
23101;SDS011;11720;51.214;22.574;2022-12-07T09:54:39;18.33;;;3.73;;
23101;SDS011;11720;51.214;22.574;2022-12-07T09:57:08;6.90;;;3.00;;
23101;SDS011;11720;51.214;22.574;2022-12-07T09:59:37;2.77;;;2.57;;
23101;SDS011;11720;51.214;22.574;2022-12-07T10:02:22;5.30;;;3.10;;
23101;SDS011;11720;51.214;22.574;2022-12-07T10:05:00;1.60;;;1.60;;
23101;SDS011;11720;51.214;22.574;2022-12-07T10:07:26;3.17;;;2.97;;
23101;SDS011;11720;51.214;22.574;2022-12-07T10:09:52;5.33;;;3.37;;
23101;SDS011;11720;51.214;22.574;2022-12-07T10:12:17;2.00;;;1.83;;
23101;SDS011;11720;51.214;22.574;2022-12-07T10:14:57;2.90;;;2.10;;
23101;SDS011;11720;51.214;22.574;2022-12-07T10:22:37;1.80;;;1.67;;
23101;SDS011;11720;51.214;22.574;2022-12-07T10:25:17;10.40;;;4.03;;
23101;SDS011;11720;51.214;22.574;2022-12-07T10:27:56;4.57;;;2.67;;
23101;SDS011;11720;51.214;22.574;2022-12-07T10:30:24;2.07;;;1.73;;
23101;SDS011;11720;51.214;22.574;2022-12-07T10:32:50;3.27;;;2.90;;
23101;SDS011;11720;51.214;22.574;2022-12-07T10:37:52;4.63;;;3.10;;
23101;SDS011;11720;51.214;22.574;2022-12-07T10:40:33;2.30;;;2.10;;
23101;SDS011;11720;51.214;22.574;2022-12-07T10:43:01;3.27;;;2.83;;
23101;SDS011;11720;51.214;22.574;2022-12-07T10:45:31;1.13;;;1.13;;
23101;SDS011;11720;51.214;22.574;2022-12-07T10:48:10;1.43;;;1.37;;
23101;SDS011;11720;51.214;22.574;2022-12-07T11:09:55;2.47;;;2.07;;
23101;SDS011;11720;51.214;22.574;2022-12-07T11:21:36;1.27;;;1.17;;
23101;SDS011;11720;51.214;22.574;2022-12-07T11:24:16;1.50;;;1.50;;
23101;SDS011;11720;51.214;22.574;2022-12-07T11:29:59;1.07;;;1.03;;
23101;SDS011;11720;51.214;22.574;2022-12-07T11:41:26;4.73;;;3.17;;
23101;SDS011;11720;51.214;22.574;2022-12-07T11:44:01;5.77;;;3.20;;
23101;SDS011;11720;51.214;22.574;2022-12-07T11:46:48;3.40;;;2.80;;
23101;SDS011;11720;51.214;22.574;2022-12-07T11:55:05;4.27;;;2.00;;
23101;SDS011;11720;51.214;22.574;2022-12-07T11:58:03;1.90;;;1.80;;
23101;SDS011;11720;51.214;22.574;2022-12-07T12:00:37;2.43;;;2.03;;
23101;SDS011;11720;51.214;22.574;2022-12-07T12:03:09;2.53;;;1.70;;
23101;SDS011;11720;51.214;22.574;2022-12-07T12:05:41;2.33;;;2.10;;
23101;SDS011;11720;51.214;22.574;2022-12-07T12:08:18;3.13;;;2.13;;
23101;SDS011;11720;51.214;22.574;2022-12-07T12:22:27;1.47;;;1.40;;
23101;SDS011;11720;51.214;22.574;2022-12-07T12:25:03;1.77;;;1.63;;
23101;SDS011;11720;51.214;22.574;2022-12-07T12:27:32;2.33;;;2.23;;
23101;SDS011;11720;51.214;22.574;2022-12-07T12:30:07;3.50;;;2.70;;
23101;SDS011;11720;51.214;22.574;2022-12-07T12:32:49;1.90;;;1.77;;
23101;SDS011;11720;51.214;22.574;2022-12-07T12:37:51;1.73;;;1.63;;
23101;SDS011;11720;51.214;22.574;2022-12-07T12:42:57;4.93;;;2.23;;
23101;SDS011;11720;51.214;22.574;2022-12-07T12:50:26;2.83;;;2.50;;
23101;SDS011;11720;51.214;22.574;2022-12-07T12:52:55;2.30;;;2.13;;
23101;SDS011;11720;51.214;22.574;2022-12-07T12:55:29;2.03;;;1.90;;
23101;SDS011;11720;51.214;22.574;2022-12-07T13:00:45;3.43;;;2.00;;
23101;SDS011;11720;51.214;22.574;2022-12-07T13:03:22;2.80;;;1.80;;
23101;SDS011;11720;51.214;22.574;2022-12-07T13:06:35;2.60;;;2.00;;
23101;SDS011;11720;51.214;22.574;2022-12-07T13:08:42;4.80;;;1.40;;
23101;SDS011;11720;51.214;22.574;2022-12-07T13:11:17;4.00;;;2.73;;
23101;SDS011;11720;51.214;22.574;2022-12-07T13:16:59;2.50;;;2.30;;
23101;SDS011;11720;51.214;22.574;2022-12-07T13:25:02;1.50;;;1.40;;
23101;SDS011;11720;51.214;22.574;2022-12-07T13:27:54;2.80;;;2.40;;
23101;SDS011;11720;51.214;22.574;2022-12-07T13:30:24;1.00;;;1.00;;
23101;SDS011;11720;51.214;22.574;2022-12-07T13:32:52;1.30;;;1.23;;
23101;SDS011;11720;51.214;22.574;2022-12-07T13:37:58;1.80;;;1.33;;
23101;SDS011;11720;51.214;22.574;2022-12-07T13:40:27;6.03;;;2.03;;
23101;SDS011;11720;51.214;22.574;2022-12-07T13:43:00;1.53;;;1.43;;
23101;SDS011;11720;51.214;22.574;2022-12-07T13:45:28;2.87;;;1.90;;
23101;SDS011;11720;51.214;22.574;2022-12-07T13:48:15;4.80;;;2.63;;
23101;SDS011;11720;51.214;22.574;2022-12-07T13:51:12;3.73;;;2.03;;
23101;SDS011;11720;51.214;22.574;2022-12-07T13:53:49;1.50;;;1.37;;
23101;SDS011;11720;51.214;22.574;2022-12-07T13:56:16;2.43;;;2.23;;
23101;SDS011;11720;51.214;22.574;2022-12-07T13:58:42;1.47;;;1.37;;
23101;SDS011;11720;51.214;22.574;2022-12-07T14:01:08;2.50;;;2.30;;
23101;SDS011;11720;51.214;22.574;2022-12-07T14:03:35;3.17;;;2.97;;
23101;SDS011;11720;51.214;22.574;2022-12-07T14:06:05;1.97;;;1.87;;
23101;SDS011;11720;51.214;22.574;2022-12-07T14:08:44;2.50;;;2.00;;
23101;SDS011;11720;51.214;22.574;2022-12-07T14:11:13;3.10;;;2.00;;
23101;SDS011;11720;51.214;22.574;2022-12-07T14:13:51;2.60;;;2.17;;
23101;SDS011;11720;51.214;22.574;2022-12-07T14:16:25;2.07;;;1.73;;
23101;SDS011;11720;51.214;22.574;2022-12-07T14:18:57;3.87;;;2.77;;
23101;SDS011;11720;51.214;22.574;2022-12-07T14:21:25;3.30;;;3.00;;
23101;SDS011;11720;51.214;22.574;2022-12-07T14:26:40;4.23;;;2.93;;
23101;SDS011;11720;51.214;22.574;2022-12-07T14:31:50;3.40;;;1.70;;
23101;SDS011;11720;51.214;22.574;2022-12-07T14:34:19;2.27;;;2.17;;
23101;SDS011;11720;51.214;22.574;2022-12-07T14:36:48;3.23;;;2.80;;
23101;SDS011;11720;51.214;22.574;2022-12-07T14:39:14;9.03;;;2.83;;
23101;SDS011;11720;51.214;22.574;2022-12-07T14:41:40;7.70;;;3.37;;
23101;SDS011;11720;51.214;22.574;2022-12-07T14:44:21;4.93;;;2.23;;
23101;SDS011;11720;51.214;22.574;2022-12-07T14:46:48;4.87;;;1.97;;
23101;SDS011;11720;51.214;22.574;2022-12-07T14:49:14;3.73;;;2.30;;
23101;SDS011;11720;51.214;22.574;2022-12-07T14:51:40;8.57;;;2.73;;
23101;SDS011;11720;51.214;22.574;2022-12-07T14:54:14;8.87;;;2.20;;
23101;SDS011;11720;51.214;22.574;2022-12-07T14:56:44;10.87;;;3.20;;
23101;SDS011;11720;51.214;22.574;2022-12-07T14:59:13;2.67;;;1.98;;
23101;SDS011;11720;51.214;22.574;2022-12-07T15:01:40;2.70;;;1.97;;
23101;SDS011;11720;51.214;22.574;2022-12-07T15:04:05;3.10;;;1.80;;
23101;SDS011;11720;51.214;22.574;2022-12-07T15:06:31;9.87;;;4.03;;
23101;SDS011;11720;51.214;22.574;2022-12-07T15:08:57;1.40;;;1.30;;
23101;SDS011;11720;51.214;22.574;2022-12-07T15:11:22;3.53;;;2.33;;
23101;SDS011;11720;51.214;22.574;2022-12-07T15:13:48;2.20;;;2.10;;
23101;SDS011;11720;51.214;22.574;2022-12-07T15:16:33;1.50;;;1.43;;
23101;SDS011;11720;51.214;22.574;2022-12-07T15:18:59;3.93;;;2.47;;
23101;SDS011;11720;51.214;22.574;2022-12-07T15:21:25;2.07;;;1.70;;
23101;SDS011;11720;51.214;22.574;2022-12-07T15:23:51;2.40;;;2.00;;
23101;SDS011;11720;51.214;22.574;2022-12-07T15:26:16;3.07;;;2.87;;
23101;SDS011;11720;51.214;22.574;2022-12-07T15:28:42;2.53;;;2.30;;
23101;SDS011;11720;51.214;22.574;2022-12-07T15:31:11;1.87;;;1.77;;
23101;SDS011;11720;51.214;22.574;2022-12-07T15:33:38;4.00;;;2.60;;
23101;SDS011;11720;51.214;22.574;2022-12-07T15:36:05;5.97;;;2.00;;
23101;SDS011;11720;51.214;22.574;2022-12-07T15:38:31;1.90;;;1.80;;
23101;SDS011;11720;51.214;22.574;2022-12-07T15:40:56;3.10;;;2.37;;
23101;SDS011;11720;51.214;22.574;2022-12-07T15:43:22;7.20;;;4.50;;
23101;SDS011;11720;51.214;22.574;2022-12-07T15:46:06;2.97;;;2.60;;
23101;SDS011;11720;51.214;22.574;2022-12-07T15:48:32;4.97;;;3.93;;
23101;SDS011;11720;51.214;22.574;2022-12-07T15:51:05;3.07;;;2.63;;
23101;SDS011;11720;51.214;22.574;2022-12-07T15:53:33;10.07;;;4.10;;
23101;SDS011;11720;51.214;22.574;2022-12-07T15:55:59;4.27;;;2.93;;
23101;SDS011;11720;51.214;22.574;2022-12-07T15:58:25;13.40;;;5.47;;
23101;SDS011;11720;51.214;22.574;2022-12-07T16:00:51;10.67;;;3.57;;
23101;SDS011;11720;51.214;22.574;2022-12-07T16:03:16;6.40;;;3.33;;
23101;SDS011;11720;51.214;22.574;2022-12-07T16:05:47;2.97;;;2.17;;
23101;SDS011;11720;51.214;22.574;2022-12-07T16:08:14;8.63;;;3.03;;
23101;SDS011;11720;51.214;22.574;2022-12-07T16:10:39;7.17;;;2.67;;
23101;SDS011;11720;51.214;22.574;2022-12-07T16:13:08;2.27;;;2.07;;
23101;SDS011;11720;51.214;22.574;2022-12-07T16:15:37;14.20;;;3.83;;
23101;SDS011;11720;51.214;22.574;2022-12-07T16:18:06;2.23;;;2.13;;
23101;SDS011;11720;51.214;22.574;2022-12-07T16:20:32;3.03;;;2.73;;
23101;SDS011;11720;51.214;22.574;2022-12-07T16:22:58;2.13;;;1.87;;
23101;SDS011;11720;51.214;22.574;2022-12-07T16:25:23;8.57;;;3.90;;
23101;SDS011;11720;51.214;22.574;2022-12-07T16:27:50;8.80;;;4.37;;
23101;SDS011;11720;51.214;22.574;2022-12-07T16:30:16;2.83;;;2.63;;
23101;SDS011;11720;51.214;22.574;2022-12-07T16:32:42;2.00;;;1.90;;
23101;SDS011;11720;51.214;22.574;2022-12-07T16:35:08;6.17;;;3.07;;
23101;SDS011;11720;51.214;22.574;2022-12-07T16:37:34;2.80;;;2.60;;
23101;SDS011;11720;51.214;22.574;2022-12-07T16:40:00;6.93;;;3.97;;
23101;SDS011;11720;51.214;22.574;2022-12-07T16:42:25;6.80;;;3.30;;
23101;SDS011;11720;51.214;22.574;2022-12-07T16:44:51;2.53;;;2.33;;
23101;SDS011;11720;51.214;22.574;2022-12-07T16:47:18;3.00;;;2.77;;
23101;SDS011;11720;51.214;22.574;2022-12-07T16:49:44;3.43;;;2.73;;
23101;SDS011;11720;51.214;22.574;2022-12-07T16:52:09;3.97;;;3.67;;
23101;SDS011;11720;51.214;22.574;2022-12-07T16:54:35;2.50;;;2.30;;
23101;SDS011;11720;51.214;22.574;2022-12-07T16:57:01;3.70;;;3.37;;
23101;SDS011;11720;51.214;22.574;2022-12-07T16:59:27;3.43;;;2.83;;